Time;durP1;ratioP1;P1;durP2;ratioP2;P2;SDS_P1;SDS_P2;PMS_P1;PMS_P2;Temp;Humidity;BMP_temperature;BMP_pressure;BME280_temperature;BME280_humidity;BME280_pressure;Samples;Min_cycle;Max_cycle;Signal;HPM_P1;HPM_P2
2022/02/14 00:02:17;;;;;;;3.20;1.90;;;;;;;;;;5094934;28;20082;-76
2022/02/14 00:04:44;;;;;;;6.13;1.80;;;;;;;;;;5094865;28;20099;-76
2022/02/14 00:07:11;;;;;;;3.38;1.50;;;;;;;;;;5094682;28;20040;-76
2022/02/14 00:09:37;;;;;;;4.72;2.05;;;;;;;;;;5094638;28;20087;-75
2022/02/14 00:12:04;;;;;;;4.20;1.70;;;;;;;;;;5094711;28;20082;-75
2022/02/14 00:14:31;;;;;;;5.85;2.60;;;;;;;;;;5094358;28;20048;-76
2022/02/14 00:16:59;;;;;;;2.95;1.70;;;;;;;;;;5093401;28;20076;-76
2022/02/14 00:19:25;;;;;;;3.08;1.50;;;;;;;;;;5093470;28;20527;-75
2022/02/14 00:21:52;;;;;;;2.78;1.60;;;;;;;;;;5094474;28;20076;-75
2022/02/14 00:24:18;;;;;;;3.90;1.60;;;;;;;;;;5094491;28;20040;-75
2022/02/14 00:26:45;;;;;;;3.58;1.48;;;;;;;;;;5094136;28;20084;-76
2022/02/14 00:29:13;;;;;;;3.30;1.55;;;;;;;;;;5093431;28;20472;-75
2022/02/14 00:31:40;;;;;;;6.85;2.17;;;;;;;;;;5094459;28;20360;-75
2022/02/14 00:34:07;;;;;;;4.82;1.80;;;;;;;;;;5094110;28;20067;-75
2022/02/14 00:36:35;;;;;;;2.00;1.23;;;;;;;;;;5094468;28;20072;-75
2022/02/14 00:39:01;;;;;;;5.03;2.25;;;;;;;;;;5094398;28;20051;-76
2022/02/14 00:41:28;;;;;;;4.43;1.40;;;;;;;;;;5094009;28;20140;-75
2022/02/14 00:43:54;;;;;;;3.53;1.60;;;;;;;;;;5094407;28;20097;-76
2022/02/14 00:46:21;;;;;;;4.10;2.10;;;;;;;;;;5095561;28;20076;-76
2022/02/14 00:48:47;;;;;;;3.67;1.70;;;;;;;;;;5098257;28;20093;-76
2022/02/14 00:51:15;;;;;;;3.65;1.35;;;;;;;;;;5097973;28;20075;-75
2022/02/14 00:53:42;;;;;;;4.63;1.58;;;;;;;;;;5098187;28;20079;-76
2022/02/14 00:56:08;;;;;;;4.93;1.60;;;;;;;;;;5098195;28;20072;-76
2022/02/14 00:58:35;;;;;;;4.43;1.42;;;;;;;;;;5098035;28;20071;-75
2022/02/14 01:01:01;;;;;;;2.63;1.35;;;;;;;;;;5096890;28;20426;-77
2022/02/14 01:03:28;;;;;;;3.75;1.50;;;;;;;;;;5096807;28;20098;-76
2022/02/14 01:05:55;;;;;;;3.85;1.55;;;;;;;;;;5097949;28;20444;-75
2022/02/14 01:08:23;;;;;;;3.95;1.67;;;;;;;;;;5096628;28;20508;-75
2022/02/14 01:10:49;;;;;;;2.50;1.50;;;;;;;;;;5089290;28;20068;-76
2022/02/14 01:13:16;;;;;;;3.47;1.50;;;;;;;;;;5096921;28;20067;-76
2022/02/14 01:15:42;;;;;;;2.95;1.35;;;;;;;;;;5096505;28;20075;-75
2022/02/14 01:18:09;;;;;;;3.33;1.40;;;;;;;;;;5096825;28;20087;-75
2022/02/14 01:20:35;;;;;;;6.07;2.47;;;;;;;;;;5096817;28;20072;-76
2022/02/14 01:23:02;;;;;;;4.25;1.45;;;;;;;;;;5097272;28;20106;-76
2022/02/14 01:25:30;;;;;;;3.60;1.27;;;;;;;;;;5097519;28;20043;-75
2022/02/14 01:27:56;;;;;;;1.75;1.05;;;;;;;;;;5097421;28;20087;-75
2022/02/14 01:30:23;;;;;;;2.95;1.10;;;;;;;;;;5096613;28;20071;-75
2022/02/14 01:32:49;;;;;;;2.03;1.00;;;;;;;;;;5096239;28;20429;-76
2022/02/14 01:35:16;;;;;;;3.25;0.95;;;;;;;;;;5097419;28;20036;-76
2022/02/14 01:37:42;;;;;;;2.63;1.35;;;;;;;;;;5097292;28;20036;-75
2022/02/14 01:40:12;;;;;;;5.10;1.40;;;;;;;;;;5097038;28;20078;-75
2022/02/14 01:42:40;;;;;;;3.80;1.15;;;;;;;;;;5095943;28;20043;-76
2022/02/14 01:45:08;;;;;;;2.58;1.30;;;;;;;;;;5097208;28;20094;-76
2022/02/14 01:47:34;;;;;;;3.30;1.58;;;;;;;;;;5096334;28;20048;-76
2022/02/14 01:50:02;;;;;;;3.90;1.73;;;;;;;;;;5097135;28;20071;-76
2022/02/14 01:52:30;;;;;;;5.95;1.40;;;;;;;;;;5096768;28;20123;-75
2022/02/14 01:54:57;;;;;;;3.13;1.30;;;;;;;;;;5096997;28;20047;-75
2022/02/14 01:57:23;;;;;;;2.88;1.20;;;;;;;;;;5094947;28;20067;-75
2022/02/14 01:59:51;;;;;;;3.83;1.40;;;;;;;;;;5096950;28;20094;-75
2022/02/14 02:02:18;;;;;;;2.83;1.40;;;;;;;;;;5096795;28;20072;-75
2022/02/14 02:04:45;;;;;;;2.47;1.05;;;;;;;;;;5096745;28;20044;-75
2022/02/14 02:07:14;;;;;;;1.73;0.90;;;;;;;;;;5096405;28;20067;-75
2022/02/14 02:09:42;;;;;;;4.68;1.25;;;;;;;;;;5096774;28;20090;-75
2022/02/14 02:12:25;;;;;;;2.60;1.15;;;;;;;;;;5095772;28;20082;-76
2022/02/14 02:14:55;;;;;;;2.35;1.10;;;;;;;;;;5095707;28;20455;-75
2022/02/14 02:17:29;;;;;;;5.22;1.60;;;;;;;;;;5096550;28;20040;-76
2022/02/14 02:19:55;;;;;;;4.03;1.63;;;;;;;;;;5096517;28;20083;-76
2022/02/14 02:22:22;;;;;;;4.82;1.70;;;;;;;;;;5096417;28;20134;-75
2022/02/14 02:24:51;;;;;;;6.80;2.58;;;;;;;;;;5095320;28;20079;-76
2022/02/14 02:27:21;;;;;;;7.05;2.13;;;;;;;;;;5095144;28;20044;-76
2022/02/14 02:29:48;;;;;;;4.95;2.47;;;;;;;;;;5096042;28;20046;-75
2022/02/14 02:32:15;;;;;;;4.35;2.22;;;;;;;;;;5096315;28;20080;-75
2022/02/14 02:34:43;;;;;;;6.82;2.63;;;;;;;;;;5096207;28;20044;-75
2022/02/14 02:37:11;;;;;;;10.65;4.05;;;;;;;;;;5095947;28;20074;-75
2022/02/14 02:39:38;;;;;;;9.75;4.90;;;;;;;;;;5094988;28;20072;-75
2022/02/14 02:42:07;;;;;;;10.65;4.65;;;;;;;;;;5095921;28;20110;-76
2022/02/14 02:44:33;;;;;;;9.35;3.33;;;;;;;;;;5096057;28;20044;-75
2022/02/14 02:47:01;;;;;;;6.70;3.08;;;;;;;;;;5094391;28;20048;-76
2022/02/14 02:49:28;;;;;;;4.18;1.58;;;;;;;;;;5094796;28;20476;-75
2022/02/14 02:51:55;;;;;;;5.03;1.58;;;;;;;;;;5095871;28;20237;-76
2022/02/14 02:54:23;;;;;;;4.18;1.48;;;;;;;;;;5094762;28;20101;-75
2022/02/14 02:56:51;;;;;;;3.33;1.60;;;;;;;;;;5095754;28;20093;-75
2022/02/14 02:59:19;;;;;;;4.75;1.80;;;;;;;;;;5094682;28;20511;-75
2022/02/14 03:01:46;;;;;;;5.40;2.00;;;;;;;;;;5095391;28;20068;-76
2022/02/14 03:04:19;;;;;;;5.95;2.03;;;;;;;;;;5094743;28;20047;-75
2022/02/14 03:06:46;;;;;;;3.63;1.52;;;;;;;;;;5095544;28;20040;-75
2022/02/14 03:09:14;;;;;;;4.40;1.80;;;;;;;;;;5095047;28;20050;-75
2022/02/14 03:11:42;;;;;;;6.13;2.08;;;;;;;;;;5095538;28;20067;-75
2022/02/14 03:14:09;;;;;;;3.15;1.55;;;;;;;;;;5095190;28;20083;-76
2022/02/14 03:16:37;;;;;;;4.20;1.83;;;;;;;;;;5094843;28;20071;-76
2022/02/14 03:19:04;;;;;;;7.13;2.15;;;;;;;;;;5095175;28;20068;-75
2022/02/14 03:21:31;;;;;;;4.63;1.85;;;;;;;;;;5095393;28;20057;-75
2022/02/14 03:23:58;;;;;;;6.43;1.45;;;;;;;;;;5095244;28;20080;-75
2022/02/14 03:26:25;;;;;;;3.72;1.55;;;;;;;;;;5094179;28;20464;-75
2022/02/14 03:28:53;;;;;;;3.20;1.40;;;;;;;;;;5094129;28;20083;-75
2022/02/14 03:31:19;;;;;;;3.55;1.50;;;;;;;;;;5093998;28;20044;-76
2022/02/14 03:33:48;;;;;;;4.85;1.92;;;;;;;;;;5095082;28;20044;-75
2022/02/14 03:36:17;;;;;;;3.40;1.48;;;;;;;;;;5094028;28;20538;-75
2022/02/14 03:38:45;;;;;;;4.63;2.40;;;;;;;;;;5095081;28;20036;-75
2022/02/14 03:41:12;;;;;;;7.45;1.98;;;;;;;;;;5093783;28;20470;-75
2022/02/14 03:43:38;;;;;;;4.95;1.35;;;;;;;;;;5094632;28;20071;-75
2022/02/14 03:46:06;;;;;;;3.13;1.92;;;;;;;;;;5094798;28;20078;-76
2022/02/14 03:48:32;;;;;;;4.10;2.33;;;;;;;;;;5093332;28;20460;-75
2022/02/14 03:51:00;;;;;;;3.53;1.30;;;;;;;;;;5094522;28;20468;-75
2022/02/14 03:53:27;;;;;;;2.75;1.30;;;;;;;;;;5093696;28;20510;-75
2022/02/14 03:55:54;;;;;;;2.78;1.40;;;;;;;;;;5093941;28;20072;-75
2022/02/14 03:58:20;;;;;;;4.95;1.70;;;;;;;;;;5094717;28;20072;-75
2022/02/14 04:00:47;;;;;;;3.88;1.60;;;;;;;;;;5093629;28;20488;-75
2022/02/14 04:03:13;;;;;;;5.40;1.55;;;;;;;;;;5094670;28;20075;-76
2022/02/14 04:05:40;;;;;;;2.72;1.40;;;;;;;;;;5094723;28;20075;-75
2022/02/14 04:08:08;;;;;;;1.80;1.10;;;;;;;;;;5094707;28;20043;-75
2022/02/14 04:10:35;;;;;;;3.10;1.30;;;;;;;;;;5094536;28;20098;-75
2022/02/14 04:13:01;;;;;;;2.30;1.00;;;;;;;;;;5093542;28;20040;-75
2022/02/14 04:15:28;;;;;;;3.92;1.88;;;;;;;;;;5094591;28;20095;-75
2022/02/14 04:17:54;;;;;;;6.35;1.50;;;;;;;;;;5094606;28;20429;-76
2022/02/14 04:20:21;;;;;;;2.63;1.40;;;;;;;;;;5096358;28;20051;-74
2022/02/14 04:22:48;;;;;;;2.47;0.90;;;;;;;;;;5098803;28;20087;-75
2022/02/14 04:25:16;;;;;;;6.00;1.55;;;;;;;;;;5098162;28;20076;-75
2022/02/14 04:27:44;;;;;;;2.33;1.55;;;;;;;;;;5098826;28;20102;-75
2022/02/14 04:30:11;;;;;;;4.25;1.00;;;;;;;;;;5098483;28;20420;-75
2022/02/14 04:32:38;;;;;;;2.80;1.30;;;;;;;;;;5098556;28;20106;-75
2022/02/14 04:35:06;;;;;;;4.25;1.30;;;;;;;;;;5097758;28;20079;-75
2022/02/14 04:37:32;;;;;;;2.33;1.05;;;;;;;;;;5098486;28;20044;-75
2022/02/14 04:39:59;;;;;;;2.30;1.50;;;;;;;;;;5098430;28;20086;-75
2022/02/14 04:42:28;;;;;;;2.35;1.00;;;;;;;;;;5097151;28;20044;-75
2022/02/14 04:44:54;;;;;;;2.13;1.05;;;;;;;;;;5097976;28;20094;-75
2022/02/14 04:47:21;;;;;;;2.35;1.27;;;;;;;;;;5096403;28;20609;-75
2022/02/14 04:49:47;;;;;;;3.58;1.20;;;;;;;;;;5097891;28;20125;-76
2022/02/14 04:52:14;;;;;;;4.55;2.30;;;;;;;;;;5098253;28;20071;-74
2022/02/14 04:54:40;;;;;;;2.10;1.35;;;;;;;;;;5097072;28;20488;-75
2022/02/14 04:57:07;;;;;;;3.60;1.48;;;;;;;;;;5098165;28;20036;-75
2022/02/14 04:59:35;;;;;;;3.05;1.27;;;;;;;;;;5097976;28;20074;-75
2022/02/14 05:02:01;;;;;;;2.50;1.23;;;;;;;;;;5097841;28;20063;-76
2022/02/14 05:04:30;;;;;;;3.95;1.27;;;;;;;;;;5097121;28;20040;-76
2022/02/14 05:06:56;;;;;;;3.22;1.30;;;;;;;;;;5096782;28;20043;-75
2022/02/14 05:09:23;;;;;;;4.38;1.20;;;;;;;;;;5096689;28;20496;-75
2022/02/14 05:11:50;;;;;;;2.10;0.73;;;;;;;;;;5096881;28;20067;-76
2022/02/14 05:14:16;;;;;;;4.72;1.73;;;;;;;;;;5097276;28;20372;-75
2022/02/14 05:16:44;;;;;;;1.55;1.25;;;;;;;;;;5096832;28;20079;-76
2022/02/14 05:19:11;;;;;;;2.85;1.17;;;;;;;;;;5097152;28;20484;-77
2022/02/14 05:21:37;;;;;;;7.10;1.35;;;;;;;;;;5097580;28;20405;-77
2022/02/14 05:24:05;;;;;;;4.22;1.33;;;;;;;;;;5097298;28;20080;-77
2022/02/14 05:26:31;;;;;;;4.03;1.40;;;;;;;;;;5097845;28;20048;-77
2022/02/14 05:28:58;;;;;;;7.75;2.00;;;;;;;;;;5097420;28;20098;-77
2022/02/14 05:31:26;;;;;;;4.97;1.92;;;;;;;;;;5097914;28;20079;-77
2022/02/14 05:33:54;;;;;;;7.70;2.55;;;;;;;;;;5098146;28;20476;-77
2022/02/14 05:36:21;;;;;;;7.38;2.40;;;;;;;;;;5098278;28;20091;-77
2022/02/14 05:38:47;;;;;;;8.38;3.60;;;;;;;;;;5097710;28;20468;-77
2022/02/14 05:41:14;;;;;;;9.27;2.55;;;;;;;;;;5097739;28;20176;-77
2022/02/14 05:43:41;;;;;;;7.93;3.95;;;;;;;;;;5097322;28;20097;-77
2022/02/14 05:46:13;;;;;;;8.55;4.22;;;;;;;;;;5096552;28;20086;-77
2022/02/14 05:48:40;;;;;;;7.38;3.35;;;;;;;;;;5096426;28;20052;-77
2022/02/14 05:51:09;;;;;;;8.35;2.72;;;;;;;;;;5095940;28;20040;-76
2022/02/14 05:53:35;;;;;;;9.75;4.15;;;;;;;;;;5096685;28;20447;-76
2022/02/14 05:56:02;;;;;;;13.75;5.80;;;;;;;;;;5096640;28;20367;-76
2022/02/14 05:58:29;;;;;;;12.35;5.13;;;;;;;;;;5095709;28;20472;-76
2022/02/14 06:00:55;;;;;;;14.60;4.55;;;;;;;;;;5095795;28;20515;-76
2022/02/14 06:03:22;;;;;;;15.05;6.30;;;;;;;;;;5095509;28;20071;-76
2022/02/14 06:05:48;;;;;;;11.20;6.90;;;;;;;;;;5096628;28;20071;-76
2022/02/14 06:08:16;;;;;;;13.40;5.40;;;;;;;;;;5096117;28;20079;-76
2022/02/14 06:10:43;;;;;;;12.55;4.03;;;;;;;;;;5096506;28;20090;-76
2022/02/14 06:13:09;;;;;;;8.05;3.42;;;;;;;;;;5095339;28;20090;-76
2022/02/14 06:15:36;;;;;;;13.50;3.53;;;;;;;;;;5096155;28;20172;-77
2022/02/14 06:18:02;;;;;;;12.52;3.33;;;;;;;;;;5096195;28;20036;-76
2022/02/14 06:20:29;;;;;;;5.80;1.55;;;;;;;;;;5096215;28;20075;-76
2022/02/14 06:22:55;;;;;;;5.82;1.63;;;;;;;;;;5096485;28;20071;-76
2022/02/14 06:25:23;;;;;;;10.80;2.63;;;;;;;;;;5095613;28;20357;-76
2022/02/14 06:27:50;;;;;;;2.03;1.20;;;;;;;;;;5095478;28;20076;-76
2022/02/14 06:30:18;;;;;;;5.30;1.30;;;;;;;;;;5095943;28;20121;-76
2022/02/14 06:32:45;;;;;;;7.40;1.80;;;;;;;;;;5095822;28;20043;-76
2022/02/14 06:35:11;;;;;;;7.78;2.17;;;;;;;;;;5096090;28;20416;-76
2022/02/14 06:37:41;;;;;;;4.60;1.65;;;;;;;;;;5095668;28;20043;-76
2022/02/14 06:40:09;;;;;;;5.85;2.03;;;;;;;;;;5095698;28;20043;-76
2022/02/14 06:42:37;;;;;;;10.23;2.50;;;;;;;;;;5095325;28;20425;-77
2022/02/14 06:45:04;;;;;;;10.25;2.63;;;;;;;;;;5095910;28;20036;-76
2022/02/14 06:47:31;;;;;;;16.92;3.25;;;;;;;;;;5095071;28;20106;-77
2022/02/14 06:49:57;;;;;;;12.90;3.33;;;;;;;;;;5095800;28;20083;-76
2022/02/14 06:52:24;;;;;;;6.45;2.65;;;;;;;;;;5095604;28;20052;-77
2022/02/14 06:54:50;;;;;;;4.30;2.20;;;;;;;;;;5094941;28;20106;-76
2022/02/14 06:57:17;;;;;;;6.50;3.08;;;;;;;;;;5095704;28;20099;-76
2022/02/14 06:59:45;;;;;;;7.90;2.65;;;;;;;;;;5095522;28;20040;-76
2022/02/14 07:02:11;;;;;;;7.78;2.83;;;;;;;;;;5094582;28;20083;-76
2022/02/14 07:04:38;;;;;;;8.30;3.80;;;;;;;;;;5095140;28;20040;-77
2022/02/14 07:07:05;;;;;;;7.63;3.30;;;;;;;;;;5095414;28;20317;-77
2022/02/14 07:09:31;;;;;;;7.15;3.38;;;;;;;;;;5095407;28;20048;-76
2022/02/14 07:11:58;;;;;;;12.65;5.43;;;;;;;;;;5095340;28;20076;-76
2022/02/14 07:14:25;;;;;;;16.27;7.68;;;;;;;;;;5094963;28;20464;-76
2022/02/14 07:16:53;;;;;;;10.60;5.60;;;;;;;;;;5095200;28;20093;-76
2022/02/14 07:19:20;;;;;;;19.67;7.50;;;;;;;;;;5094359;28;20072;-76
2022/02/14 07:21:46;;;;;;;17.77;7.38;;;;;;;;;;5095292;28;20044;-76
2022/02/14 07:24:13;;;;;;;10.52;5.75;;;;;;;;;;5094035;28;20075;-76
2022/02/14 07:26:40;;;;;;;15.50;5.93;;;;;;;;;;5094280;28;20486;-76
2022/02/14 07:29:06;;;;;;;13.70;6.18;;;;;;;;;;5094311;28;20453;-76
2022/02/14 07:31:33;;;;;;;14.32;5.10;;;;;;;;;;5093909;28;20079;-76
2022/02/14 07:34:01;;;;;;;13.70;5.78;;;;;;;;;;5095005;28;20105;-76
2022/02/14 07:36:28;;;;;;;30.13;10.05;;;;;;;;;;5095067;28;20051;-76
2022/02/14 07:38:54;;;;;;;12.27;6.25;;;;;;;;;;5095096;28;20079;-76
2022/02/14 07:41:21;;;;;;;19.67;8.02;;;;;;;;;;5094709;28;20040;-76
2022/02/14 07:43:47;;;;;;;29.45;11.90;;;;;;;;;;5093707;28;20515;-77
2022/02/14 07:46:14;;;;;;;18.73;8.65;;;;;;;;;;5094821;28;20078;-77
2022/02/14 07:48:46;;;;;;;15.05;7.63;;;;;;;;;;5094115;28;20044;-76
2022/02/14 07:51:14;;;;;;;20.90;8.10;;;;;;;;;;5094388;28;20118;-76
2022/02/14 07:53:41;;;;;;;17.42;7.72;;;;;;;;;;5094489;28;20047;-76
2022/02/14 07:56:10;;;;;;;17.77;6.63;;;;;;;;;;5094094;28;20044;-76
2022/02/14 07:58:36;;;;;;;17.02;6.80;;;;;;;;;;5094558;28;20078;-76
2022/02/14 08:01:03;;;;;;;14.23;7.63;;;;;;;;;;5094515;28;20040;-76
2022/02/14 08:03:30;;;;;;;15.30;7.18;;;;;;;;;;5093622;28;20040;-76
2022/02/14 08:05:57;;;;;;;15.27;8.20;;;;;;;;;;5094644;28;20106;-77
2022/02/14 08:08:25;;;;;;;16.25;6.75;;;;;;;;;;5093606;28;20075;-76
2022/02/14 08:10:52;;;;;;;11.98;6.90;;;;;;;;;;5094686;28;20056;-76
2022/02/14 08:13:18;;;;;;;12.95;6.68;;;;;;;;;;5094648;28;20040;-76
2022/02/14 08:15:45;;;;;;;14.70;6.53;;;;;;;;;;5094331;28;20145;-76
2022/02/14 08:18:12;;;;;;;11.05;5.70;;;;;;;;;;5094282;28;20360;-76
2022/02/14 08:20:39;;;;;;;12.15;5.43;;;;;;;;;;5094111;28;20118;-77
2022/02/14 08:23:07;;;;;;;11.65;5.85;;;;;;;;;;5093410;28;20047;-76
2022/02/14 08:25:35;;;;;;;15.23;5.70;;;;;;;;;;5093247;28;20075;-76
2022/02/14 08:28:03;;;;;;;11.40;5.65;;;;;;;;;;5094571;28;20443;-77
2022/02/14 08:30:30;;;;;;;7.55;3.92;;;;;;;;;;5094372;28;20087;-76
2022/02/14 08:32:57;;;;;;;15.57;6.50;;;;;;;;;;5093215;28;20519;-77
2022/02/14 08:35:23;;;;;;;13.75;7.00;;;;;;;;;;5094468;28;20082;-78
2022/02/14 08:37:53;;;;;;;9.80;5.65;;;;;;;;;;5095109;28;20067;-77
2022/02/14 08:40:19;;;;;;;13.82;6.38;;;;;;;;;;5095384;28;20040;-77
2022/02/14 08:42:48;;;;;;;8.43;4.95;;;;;;;;;;5093137;28;20455;-76
2022/02/14 08:45:14;;;;;;;8.48;4.22;;;;;;;;;;5094303;28;20098;-77
2022/02/14 08:47:43;;;;;;;10.00;4.50;;;;;;;;;;5093190;28;20052;-77
2022/02/14 08:50:10;;;;;;;8.50;3.85;;;;;;;;;;5094142;28;20071;-76
2022/02/14 08:52:36;;;;;;;12.57;5.55;;;;;;;;;;5094013;28;20106;-76
2022/02/14 08:55:09;;;;;;;10.50;5.18;;;;;;;;;;5093088;28;20488;-76
2022/02/14 08:57:36;;;;;;;11.63;5.20;;;;;;;;;;5093833;28;20051;-76
2022/02/14 09:00:05;;;;;;;9.60;4.75;;;;;;;;;;5093357;28;20040;-77
2022/02/14 09:02:32;;;;;;;8.00;3.92;;;;;;;;;;5094131;28;20432;-76
2022/02/14 09:04:59;;;;;;;9.98;5.00;;;;;;;;;;5095412;28;20044;-75
2022/02/14 09:07:25;;;;;;;8.10;4.07;;;;;;;;;;5098610;28;20044;-80
2022/02/14 09:09:52;;;;;;;6.28;3.90;;;;;;;;;;5098613;28;20430;-75
2022/02/14 09:12:19;;;;;;;7.70;3.55;;;;;;;;;;5097864;28;20043;-75
2022/02/14 09:14:46;;;;;;;6.82;3.50;;;;;;;;;;5098416;28;20044;-75
2022/02/14 09:17:14;;;;;;;7.07;3.42;;;;;;;;;;5096920;28;20431;-74
2022/02/14 09:19:41;;;;;;;6.10;4.05;;;;;;;;;;5097467;28;20044;-74
2022/02/14 09:22:08;;;;;;;9.75;3.80;;;;;;;;;;5097432;28;20047;-77
2022/02/14 09:24:34;;;;;;;5.88;3.58;;;;;;;;;;5097607;28;20044;-77
2022/02/14 09:27:02;;;;;;;6.30;3.63;;;;;;;;;;5097680;28;20076;-76
2022/02/14 09:29:28;;;;;;;5.35;3.10;;;;;;;;;;5098764;28;20364;-75
2022/02/14 09:31:55;;;;;;;8.43;3.35;;;;;;;;;;5097391;28;20058;-76
2022/02/14 09:34:23;;;;;;;7.32;3.67;;;;;;;;;;5097172;28;20044;-75
2022/02/14 09:36:52;;;;;;;6.85;3.10;;;;;;;;;;5096500;28;20451;-75
2022/02/14 09:39:20;;;;;;;5.90;3.35;;;;;;;;;;5097359;28;20040;-75
2022/02/14 09:41:47;;;;;;;7.80;4.18;;;;;;;;;;5096983;28;20132;-75
2022/02/14 09:44:13;;;;;;;8.18;3.65;;;;;;;;;;5096900;28;20082;-75
2022/02/14 09:46:42;;;;;;;4.85;3.20;;;;;;;;;;5096760;28;20134;-73
2022/02/14 09:49:09;;;;;;;6.63;3.35;;;;;;;;;;5096561;28;20054;-73
2022/02/14 09:51:37;;;;;;;8.23;3.55;;;;;;;;;;5095866;28;20480;-73
2022/02/14 09:54:05;;;;;;;7.95;4.30;;;;;;;;;;5096760;28;20068;-73
2022/02/14 09:56:35;;;;;;;5.72;3.28;;;;;;;;;;5095794;28;20468;-73
2022/02/14 09:59:01;;;;;;;3.92;2.20;;;;;;;;;;5096978;28;20127;-73
2022/02/14 10:01:28;;;;;;;5.22;2.72;;;;;;;;;;5096596;28;20135;-74
2022/02/14 10:03:56;;;;;;;6.63;2.28;;;;;;;;;;5096596;28;20044;-73
2022/02/14 10:06:27;;;;;;;6.00;2.40;;;;;;;;;;5095822;28;20173;-73
2022/02/14 10:09:07;;;;;;;5.13;2.20;;;;;;;;;;5096496;28;20102;-74
2022/02/14 10:11:36;;;;;;;5.00;2.78;;;;;;;;;;5096402;28;20126;-73
2022/02/14 10:14:14;;;;;;;5.18;2.60;;;;;;;;;;5096667;28;20074;-73
2022/02/14 10:16:40;;;;;;;3.65;2.00;;;;;;;;;;5095977;28;20078;-73
2022/02/14 10:19:14;;;;;;;14.68;3.35;;;;;;;;;;5096436;28;20040;-73
2022/02/14 10:21:44;;;;;;;6.28;2.30;;;;;;;;;;5098742;28;20040;-73
2022/02/14 10:24:16;;;;;;;26.77;4.05;;;;;;;;;;5096850;28;20097;-74
2022/02/14 10:26:45;;;;;;;6.07;2.50;;;;;;;;;;5095819;28;20048;-74
2022/02/14 10:29:17;;;;;;;17.70;3.33;;;;;;;;;;5095719;28;20068;-74
2022/02/14 10:31:45;;;;;;;15.27;3.35;;;;;;;;;;5096242;28;20051;-74
2022/02/14 10:34:13;;;;;;;14.93;3.10;;;;;;;;;;5095392;28;20072;-73
2022/02/14 10:36:41;;;;;;;40.47;5.28;;;;;;;;;;5095959;28;20079;-74
2022/02/14 10:39:10;;;;;;;7.32;3.40;;;;;;;;;;5096142;28;20354;-74
2022/02/14 10:41:38;;;;;;;6.18;2.28;;;;;;;;;;5095837;28;20123;-74
2022/02/14 10:44:10;;;;;;;4.78;2.10;;;;;;;;;;5095289;28;20456;-74
2022/02/14 10:46:36;;;;;;;6.53;2.03;;;;;;;;;;5094996;28;20127;-73
2022/02/14 10:49:04;;;;;;;4.03;1.90;;;;;;;;;;5095104;28;20084;-73
2022/02/14 10:51:31;;;;;;;5.50;2.60;;;;;;;;;;5094748;28;20487;-74
2022/02/14 10:53:58;;;;;;;6.07;2.03;;;;;;;;;;5095918;28;20040;-74
2022/02/14 10:56:25;;;;;;;4.20;2.10;;;;;;;;;;5095049;28;20079;-73
2022/02/14 11:02:09;;;;;;;5.55;1.92;;;;;;;;;;4861438;27;8243689;-72
2022/02/14 11:04:35;;;;;;;3.05;1.52;;;;;;;;;;5153599;27;20067;-74
2022/02/14 11:07:02;;;;;;;4.38;2.05;;;;;;;;;;5152421;27;20081;-74
2022/02/14 11:09:29;;;;;;;4.28;2.00;;;;;;;;;;5152319;27;20491;-73
2022/02/14 11:11:57;;;;;;;3.67;1.50;;;;;;;;;;5152425;27;20039;-73
2022/02/14 11:14:24;;;;;;;2.95;1.40;;;;;;;;;;5153593;27;20157;-72
2022/02/14 11:16:52;;;;;;;5.40;1.77;;;;;;;;;;5152501;27;20075;-74
2022/02/14 11:19:21;;;;;;;4.38;1.95;;;;;;;;;;5153359;27;20154;-73
2022/02/14 11:21:47;;;;;;;5.35;1.52;;;;;;;;;;5152165;27;20513;-74
2022/02/14 11:24:23;;;;;;;9.38;2.00;;;;;;;;;;5151960;27;20122;-74
2022/02/14 11:26:57;;;;;;;4.38;1.60;;;;;;;;;;5153146;27;20122;-74
2022/02/14 11:29:33;;;;;;;4.25;2.25;;;;;;;;;;5153257;27;20043;-74
2022/02/14 11:32:15;;;;;;;6.65;1.65;;;;;;;;;;5152649;27;20077;-74
2022/02/14 11:34:58;;;;;;;6.00;2.00;;;;;;;;;;5152753;27;20073;-74
2022/02/14 11:37:26;;;;;;;7.38;2.00;;;;;;;;;;5152891;27;20335;-73
2022/02/14 11:39:52;;;;;;;6.25;2.38;;;;;;;;;;5151704;27;20039;-73
2022/02/14 11:42:19;;;;;;;4.72;2.05;;;;;;;;;;5152886;27;20070;-74
2022/02/14 11:44:46;;;;;;;2.97;1.48;;;;;;;;;;5152615;27;20066;-74
2022/02/14 11:47:16;;;;;;;3.80;1.48;;;;;;;;;;5152701;27;20034;-74
2022/02/14 11:49:44;;;;;;;2.60;1.52;;;;;;;;;;5152913;27;20071;-74
2022/02/14 11:52:30;;;;;;;3.80;1.52;;;;;;;;;;5152392;27;20039;-73
2022/02/14 11:54:57;;;;;;;;;;;;;;;;;;5153121;27;20074;-73
2022/02/14 11:57:29;;;;;;;;;;;;;;;;;;5152946;27;20013;-74
2022/02/14 12:00:24;;;;;;;4.57;1.85;;;;;;;;;;5150834;27;19973;-74
2022/02/14 12:03:00;;;;;;;3.35;1.45;;;;;;;;;;5152518;27;20035;-73
2022/02/14 12:05:43;;;;;;;5.82;1.75;;;;;;;;;;5151702;27;20074;-73
2022/02/14 12:08:11;;;;;;;3.63;1.80;;;;;;;;;;5150981;27;20043;-73
2022/02/14 12:10:47;;;;;;;5.57;1.65;;;;;;;;;;5152373;27;20103;-74
2022/02/14 12:13:18;;;;;;;;;;;;;;;;;;5138353;27;20078;-74
2022/02/14 12:21:20;;;;;;;5.03;1.73;;;;;;;;;;5137155;27;20046;-73
2022/02/14 12:23:49;;;;;;;5.80;2.10;;;;;;;;;;5137181;27;20071;-73
2022/02/14 12:26:18;;;;;;;4.13;1.95;;;;;;;;;;5137453;27;20532;-74
2022/02/14 12:28:47;;;;;;;4.15;1.30;;;;;;;;;;5137950;27;20047;-74
2022/02/14 12:31:14;;;;;;;5.47;1.80;;;;;;;;;;5137459;27;20047;-74
2022/02/14 12:33:41;;;;;;;3.97;1.90;;;;;;;;;;5136945;27;20074;-74
2022/02/14 12:36:09;;;;;;;5.00;1.50;;;;;;;;;;5137768;27;20130;-73
2022/02/14 12:38:37;;;;;;;5.32;1.70;;;;;;;;;;5138254;27;20089;-74
2022/02/14 12:41:06;;;;;;;4.32;1.70;;;;;;;;;;5137080;27;20043;-74
2022/02/14 12:43:38;;;;;;;2.67;1.30;;;;;;;;;;5137858;27;20077;-74
2022/02/14 12:46:07;;;;;;;4.35;1.60;;;;;;;;;;5137410;27;20039;-74
2022/02/14 12:48:36;;;;;;;3.78;1.60;;;;;;;;;;5137723;27;20126;-74
2022/02/14 12:51:03;;;;;;;3.75;1.60;;;;;;;;;;5136967;27;20190;-74
2022/02/14 12:53:30;;;;;;;7.20;1.75;;;;;;;;;;5136466;27;20482;-77
2022/02/14 12:56:13;;;;;;;3.03;1.60;;;;;;;;;;5137670;27;20156;-74
2022/02/14 12:58:50;;;;;;;3.58;1.45;;;;;;;;;;5136810;27;20070;-73
2022/02/14 13:01:17;;;;;;;2.72;1.42;;;;;;;;;;5136290;27;20046;-74
2022/02/14 13:03:56;;;;;;;5.07;1.73;;;;;;;;;;5137555;27;20418;-74
2022/02/14 13:06:35;;;;;;;3.38;1.40;;;;;;;;;;5137497;27;20088;-74
2022/02/14 13:09:02;;;;;;;3.47;1.40;;;;;;;;;;5136260;27;20475;-74
2022/02/14 13:11:30;;;;;;;2.70;1.33;;;;;;;;;;5137146;27;20070;-74
2022/02/14 13:13:56;;;;;;;4.47;1.35;;;;;;;;;;5137366;27;20131;-73
2022/02/14 13:16:27;;;;;;;10.98;1.98;;;;;;;;;;5136839;27;20355;-74
2022/02/14 13:18:54;;;;;;;6.18;2.85;;;;;;;;;;5137263;27;20078;-74
2022/02/14 13:21:20;;;;;;;7.72;2.17;;;;;;;;;;5137326;27;20050;-74
2022/02/14 13:23:48;;;;;;;5.63;1.80;;;;;;;;;;5135033;27;20075;-74
2022/02/14 13:26:20;;;;;;;5.88;2.17;;;;;;;;;;5137185;27;20125;-74
2022/02/14 13:28:48;;;;;;;4.93;1.42;;;;;;;;;;5137613;27;20035;-74
2022/02/14 13:31:21;;;;;;;3.13;1.80;;;;;;;;;;5136916;27;20385;-74
2022/02/14 13:33:51;;;;;;;5.75;1.88;;;;;;;;;;5136940;27;20077;-74
2022/02/14 13:36:19;;;;;;;3.33;1.80;;;;;;;;;;5135647;27;20477;-74
2022/02/14 13:38:46;;;;;;;4.28;1.55;;;;;;;;;;5136762;27;20079;-74
2022/02/14 13:41:12;;;;;;;3.42;1.80;;;;;;;;;;5136313;27;20096;-74
2022/02/14 13:43:41;;;;;;;4.07;2.03;;;;;;;;;;5135528;27;20099;-74
2022/02/14 13:46:15;;;;;;;2.65;1.30;;;;;;;;;;5135635;27;20073;-74
2022/02/14 13:48:43;;;;;;;3.50;1.58;;;;;;;;;;5136540;27;20053;-74
2022/02/14 13:51:18;;;;;;;3.95;2.00;;;;;;;;;;5136322;27;20071;-74
2022/02/14 13:53:53;;;;;;;3.27;1.60;;;;;;;;;;5136230;27;20067;-74
2022/02/14 13:56:20;;;;;;;7.05;3.05;;;;;;;;;;5136164;27;20075;-74
2022/02/14 13:58:48;;;;;;;5.55;2.60;;;;;;;;;;5135231;27;20471;-74
2022/02/14 14:01:31;;;;;;;6.60;3.00;;;;;;;;;;5132853;27;20115;-74
2022/02/14 14:04:00;;;;;;;6.45;3.15;;;;;;;;;;5136385;27;20039;-74
2022/02/14 14:06:28;;;;;;;9.13;3.42;;;;;;;;;;5136175;27;20053;-74
2022/02/14 14:08:56;;;;;;;6.53;2.75;;;;;;;;;;5135270;27;20498;-74
2022/02/14 14:11:31;;;;;;;7.00;1.80;;;;;;;;;;5136171;27;20039;-74
2022/02/14 14:13:58;;;;;;;3.23;1.77;;;;;;;;;;5136227;27;20130;-74
2022/02/14 14:16:26;;;;;;;5.00;1.90;;;;;;;;;;5134988;27;20725;-74
2022/02/14 14:18:53;;;;;;;7.28;1.80;;;;;;;;;;5135569;27;20039;-74
2022/02/14 14:21:20;;;;;;;6.45;2.25;;;;;;;;;;5135887;27;20043;-74
2022/02/14 14:23:47;;;;;;;8.57;3.97;;;;;;;;;;5135874;27;20117;-74
2022/02/14 14:26:16;;;;;;;6.85;2.30;;;;;;;;;;5135037;27;20115;-74
2022/02/14 14:28:43;;;;;;;5.32;2.42;;;;;;;;;;5134813;27;20382;-74
2022/02/14 14:31:10;;;;;;;4.70;2.17;;;;;;;;;;5135640;27;20054;-74
2022/02/14 14:33:38;;;;;;;6.45;2.25;;;;;;;;;;5135772;27;20080;-74
2022/02/14 14:36:05;;;;;;;6.07;2.70;;;;;;;;;;5134339;27;20487;-74
2022/02/14 14:38:32;;;;;;;5.05;2.20;;;;;;;;;;5134426;27;20532;-74
2022/02/14 14:40:59;;;;;;;4.40;2.60;;;;;;;;;;5135452;27;20051;-74
2022/02/14 14:43:25;;;;;;;4.07;2.40;;;;;;;;;;5135551;27;20071;-74
2022/02/14 14:45:52;;;;;;;4.53;2.40;;;;;;;;;;5135621;27;20092;-74
2022/02/14 14:48:18;;;;;;;7.25;2.97;;;;;;;;;;5134232;27;20491;-74
2022/02/14 14:50:46;;;;;;;7.03;2.08;;;;;;;;;;5135440;27;20070;-74
2022/02/14 14:53:14;;;;;;;8.45;2.47;;;;;;;;;;5135400;27;20067;-74
2022/02/14 14:55:40;;;;;;;5.97;2.97;;;;;;;;;;5135445;27;20161;-74